Time;durP1;ratioP1;P1;durP2;ratioP2;P2;SDS_P1;SDS_P2;PMS_P1;PMS_P2;Temp;Humidity;BMP_temperature;BMP_pressure;BME280_temperature;BME280_humidity;BME280_pressure;Samples;Min_cycle;Max_cycle;Signal;HPM_P1;HPM_P2
2022/07/29 00:00:44;;;;;;;0.10;0.10;;;;;;;;;;6223696;22;20094;-90
2022/07/29 00:03:13;;;;;;;0.10;0.10;;;;;;;;;;6248825;22;20348;-90
2022/07/29 00:05:40;;;;;;;0.10;0.10;;;;;;;;;;6253838;22;20019;-89
2022/07/29 00:08:06;;;;;;;0.10;0.10;;;;;;;;;;6246409;22;20008;-90
2022/07/29 00:10:32;;;;;;;0.10;0.10;;;;;;;;;;6278336;22;20019;-92
2022/07/29 00:12:58;;;;;;;0.10;0.10;;;;;;;;;;6245627;22;20011;-91
2022/07/29 00:15:24;;;;;;;0.10;0.10;;;;;;;;;;6250568;22;20077;-91
2022/07/29 00:17:50;;;;;;;0.10;0.10;;;;;;;;;;6253960;22;20007;-92
2022/07/29 00:20:16;;;;;;;0.10;0.10;;;;;;;;;;6224585;22;20325;-91
2022/07/29 00:22:42;;;;;;;0.10;0.10;;;;;;;;;;6241653;22;20054;-91
2022/07/29 00:25:08;;;;;;;0.20;0.20;;;;;;;;;;6248646;22;20396;-90
2022/07/29 00:27:35;;;;;;;0.10;0.10;;;;;;;;;;6227508;22;20026;-90
2022/07/29 00:30:01;;;;;;;0.10;0.10;;;;;;;;;;6253578;22;20030;-91
2022/07/29 00:32:27;;;;;;;0.10;0.10;;;;;;;;;;6225063;22;20434;-90
2022/07/29 00:37:37;;;;;;;0.10;0.10;;;;;;;;;;6253520;22;20341;-90
2022/07/29 00:40:03;;;;;;;0.10;0.10;;;;;;;;;;6253320;22;20015;-89
2022/07/29 00:42:29;;;;;;;0.10;0.10;;;;;;;;;;6225423;22;20016;-90
2022/07/29 00:44:56;;;;;;;0.10;0.10;;;;;;;;;;6244610;22;20043;-90
2022/07/29 00:47:22;;;;;;;0.10;0.10;;;;;;;;;;6249712;22;20175;-91
2022/07/29 00:49:48;;;;;;;0.10;0.10;;;;;;;;;;6247458;22;20079;-91
2022/07/29 00:52:14;;;;;;;0.10;0.10;;;;;;;;;;6222376;22;20012;-91
2022/07/29 00:54:40;;;;;;;0.10;0.10;;;;;;;;;;6223094;22;20402;-92
2022/07/29 00:57:06;;;;;;;0.10;0.10;;;;;;;;;;6221670;22;20405;-92
2022/07/29 00:59:32;;;;;;;0.10;0.10;;;;;;;;;;6254119;22;20049;-93
2022/07/29 01:01:58;;;;;;;0.10;0.10;;;;;;;;;;6245469;22;20015;-90
2022/07/29 01:04:24;;;;;;;0.10;0.10;;;;;;;;;;6225259;22;20404;-90
2022/07/29 01:06:50;;;;;;;0.10;0.10;;;;;;;;;;6243139;22;20015;-90
2022/07/29 01:09:16;;;;;;;0.10;0.10;;;;;;;;;;6223127;22;20035;-92
2022/07/29 01:11:42;;;;;;;0.10;0.10;;;;;;;;;;6253912;22;20011;-92
2022/07/29 01:14:08;;;;;;;0.10;0.10;;;;;;;;;;6221920;22;20015;-91
2022/07/29 01:16:37;;;;;;;0.10;0.10;;;;;;;;;;6222546;22;20392;-92
2022/07/29 01:19:23;;;;;;;0.10;0.10;;;;;;;;;;6240704;22;20065;-92
2022/07/29 01:21:57;;;;;;;0.10;0.10;;;;;;;;;;6224214;22;20026;-92
2022/07/29 01:24:41;;;;;;;0.10;0.10;;;;;;;;;;6275851;22;20015;-91
2022/07/29 01:27:07;;;;;;;0.10;0.10;;;;;;;;;;6279628;22;20011;-92
2022/07/29 01:29:35;;;;;;;0.10;0.10;;;;;;;;;;6278813;22;20056;-92
2022/07/29 01:32:09;;;;;;;0.10;0.10;;;;;;;;;;6253842;22;20019;-92
2022/07/29 01:34:41;;;;;;;0.10;0.10;;;;;;;;;;6221987;22;20018;-91
2022/07/29 01:37:23;;;;;;;0.10;0.10;;;;;;;;;;6266786;22;20048;-92
2022/07/29 01:39:49;;;;;;;0.10;0.10;;;;;;;;;;6221936;22;20031;-91
2022/07/29 01:42:34;;;;;;;0.10;0.10;;;;;;;;;;6222100;22;20016;-90
2022/07/29 01:45:06;;;;;;;0.10;0.10;;;;;;;;;;6278856;22;20022;-91
2022/07/29 01:47:32;;;;;;;;;;;;;;;;;;6252232;22;20340;-91
2022/07/29 01:49:58;;;;;;;0.10;0.10;;;;;;;;;;6269723;22;19917;-91
2022/07/29 01:52:30;;;;;;;0.10;0.10;;;;;;;;;;6223988;22;20012;-90
2022/07/29 01:54:57;;;;;;;0.80;0.35;;;;;;;;;;6279214;22;20058;-90
2022/07/29 01:57:26;;;;;;;0.10;0.10;;;;;;;;;;6275866;22;20084;-91
2022/07/29 01:59:52;;;;;;;0.10;0.10;;;;;;;;;;6243029;22;20106;-90
2022/07/29 02:02:18;;;;;;;0.10;0.10;;;;;;;;;;6222675;22;20019;-91
2022/07/29 02:04:44;;;;;;;0.10;0.10;;;;;;;;;;6266911;22;20043;-91
2022/07/29 02:07:11;;;;;;;0.10;0.10;;;;;;;;;;6222744;22;20460;-90
2022/07/29 02:09:37;;;;;;;0.30;0.30;;;;;;;;;;6222235;22;20007;-92
2022/07/29 02:12:04;;;;;;;0.10;0.10;;;;;;;;;;6221486;22;20063;-90
2022/07/29 02:14:31;;;;;;;0.10;0.10;;;;;;;;;;6224855;22;20012;-90
2022/07/29 02:16:57;;;;;;;0.13;0.13;;;;;;;;;;6244210;22;20520;-90
2022/07/29 02:19:23;;;;;;;0.10;0.10;;;;;;;;;;6224309;22;20130;-91
2022/07/29 02:21:50;;;;;;;0.10;0.10;;;;;;;;;;6278363;22;20015;-91
2022/07/29 02:24:17;;;;;;;0.10;0.10;;;;;;;;;;6278599;22;20017;-92
2022/07/29 02:26:43;;;;;;;0.10;0.10;;;;;;;;;;6252592;22;20023;-91
2022/07/29 02:29:09;;;;;;;0.10;0.10;;;;;;;;;;6221738;22;20337;-91
2022/07/29 02:31:35;;;;;;;0.20;0.20;;;;;;;;;;6252537;22;20011;-91
2022/07/29 02:34:02;;;;;;;0.10;0.10;;;;;;;;;;6245015;22;20014;-91
2022/07/29 02:36:28;;;;;;;0.10;0.10;;;;;;;;;;6224088;22;20042;-92
2022/07/29 02:38:57;;;;;;;0.10;0.10;;;;;;;;;;6253136;22;20012;-92
2022/07/29 02:41:42;;;;;;;0.10;0.10;;;;;;;;;;6223336;22;20020;-91
2022/07/29 02:44:15;;;;;;;0.20;0.20;;;;;;;;;;6246588;22;20088;-91
2022/07/29 02:46:52;;;;;;;0.10;0.10;;;;;;;;;;6223096;22;20011;-91
2022/07/29 02:49:21;;;;;;;0.10;0.10;;;;;;;;;;6250024;22;20007;-91
2022/07/29 02:51:50;;;;;;;0.10;0.10;;;;;;;;;;6280155;22;20039;-91
2022/07/29 02:54:38;;;;;;;0.10;0.10;;;;;;;;;;6254424;22;20341;-91
2022/07/29 02:57:08;;;;;;;0.10;0.10;;;;;;;;;;6247443;22;20015;-91
2022/07/29 02:59:34;;;;;;;0.10;0.10;;;;;;;;;;6228492;22;20007;-91
2022/07/29 03:02:00;;;;;;;0.10;0.10;;;;;;;;;;6279971;22;20382;-91
2022/07/29 03:04:28;;;;;;;0.10;0.10;;;;;;;;;;6255149;22;20019;-90
2022/07/29 03:06:54;;;;;;;0.30;0.30;;;;;;;;;;6245725;22;20018;-92
2022/07/29 03:09:20;;;;;;;0.10;0.10;;;;;;;;;;6225171;22;20467;-91
2022/07/29 03:11:46;;;;;;;0.10;0.10;;;;;;;;;;6280471;22;20015;-90
2022/07/29 03:14:12;;;;;;;0.10;0.10;;;;;;;;;;6280163;22;20106;-91
2022/07/29 03:16:38;;;;;;;0.10;0.10;;;;;;;;;;6254428;22;20077;-91
2022/07/29 03:19:04;;;;;;;0.10;0.10;;;;;;;;;;6223301;22;20012;-91
2022/07/29 03:21:30;;;;;;;0.20;0.20;;;;;;;;;;6226288;22;20461;-90
2022/07/29 03:23:56;;;;;;;0.10;0.10;;;;;;;;;;6271374;22;20015;-92
2022/07/29 03:26:22;;;;;;;0.10;0.10;;;;;;;;;;6225887;22;20012;-91
2022/07/29 03:28:48;;;;;;;0.30;0.30;;;;;;;;;;6229436;22;20011;-92
2022/07/29 03:31:14;;;;;;;0.10;0.10;;;;;;;;;;6255410;22;20050;-92
2022/07/29 03:33:40;;;;;;;0.10;0.10;;;;;;;;;;6223092;22;20365;-91
2022/07/29 03:36:06;;;;;;;0.10;0.10;;;;;;;;;;6224194;22;20016;-92
2022/07/29 03:38:33;;;;;;;0.10;0.10;;;;;;;;;;6252507;22;20011;-91
2022/07/29 03:41:01;;;;;;;0.20;0.20;;;;;;;;;;6245991;22;20023;-91
2022/07/29 03:43:27;;;;;;;0.10;0.10;;;;;;;;;;6226917;22;20034;-90
2022/07/29 03:45:53;;;;;;;0.10;0.10;;;;;;;;;;6279830;22;20118;-91
2022/07/29 03:48:20;;;;;;;0.10;0.10;;;;;;;;;;6254351;22;20094;-91
2022/07/29 03:50:46;;;;;;;0.10;0.10;;;;;;;;;;6268510;22;20151;-92
2022/07/29 03:53:12;;;;;;;0.30;0.20;;;;;;;;;;6223842;22;20174;-89
2022/07/29 03:55:39;;;;;;;0.10;0.10;;;;;;;;;;6228419;22;20018;-90
2022/07/29 03:58:06;;;;;;;0.25;0.25;;;;;;;;;;6252084;22;20432;-90
2022/07/29 04:00:33;;;;;;;0.10;0.10;;;;;;;;;;6252099;22;20012;-89
2022/07/29 04:02:59;;;;;;;0.10;0.10;;;;;;;;;;6245661;22;20091;-90
2022/07/29 04:05:25;;;;;;;0.10;0.10;;;;;;;;;;6225461;22;20008;-90
2022/07/29 04:07:51;;;;;;;0.10;0.10;;;;;;;;;;6254026;22;20007;-90
2022/07/29 04:10:22;;;;;;;0.20;0.20;;;;;;;;;;6222921;22;20437;-89
2022/07/29 04:12:49;;;;;;;0.10;0.10;;;;;;;;;;6243209;22;20437;-90
2022/07/29 04:15:14;;;;;;;0.10;0.10;;;;;;;;;;6223323;22;20011;-91
2022/07/29 04:17:40;;;;;;;0.10;0.10;;;;;;;;;;6248962;22;20019;-89
2022/07/29 04:20:07;;;;;;;0.10;0.10;;;;;;;;;;6248762;22;20019;-90
2022/07/29 04:22:33;;;;;;;0.10;0.10;;;;;;;;;;6223445;22;20520;-90
2022/07/29 04:24:59;;;;;;;0.10;0.10;;;;;;;;;;6222590;22;20047;-90
2022/07/29 04:27:25;;;;;;;0.10;0.10;;;;;;;;;;6224194;22;20044;-90
2022/07/29 04:29:51;;;;;;;0.10;0.10;;;;;;;;;;6245556;22;20085;-90
2022/07/29 04:32:20;;;;;;;0.10;0.10;;;;;;;;;;6225364;22;20336;-91
2022/07/29 04:34:46;;;;;;;0.10;0.10;;;;;;;;;;6253979;22;20011;-91
2022/07/29 04:37:12;;;;;;;0.10;0.10;;;;;;;;;;6249411;22;20016;-91
2022/07/29 04:39:38;;;;;;;0.10;0.10;;;;;;;;;;6227625;22;20471;-90
2022/07/29 04:42:04;;;;;;;0.10;0.10;;;;;;;;;;6246791;22;20020;-91
2022/07/29 04:44:30;;;;;;;0.10;0.10;;;;;;;;;;6226752;22;20019;-91
2022/07/29 04:46:57;;;;;;;0.10;0.10;;;;;;;;;;6245361;22;20016;-91
2022/07/29 04:49:23;;;;;;;0.10;0.10;;;;;;;;;;6224929;22;20088;-92
2022/07/29 04:51:49;;;;;;;0.10;0.10;;;;;;;;;;6279394;22;20022;-90
2022/07/29 04:54:15;;;;;;;0.10;0.10;;;;;;;;;;6254201;22;20015;-91
2022/07/29 04:56:41;;;;;;;0.10;0.10;;;;;;;;;;6248650;22;20016;-91
2022/07/29 04:59:07;;;;;;;0.20;0.20;;;;;;;;;;6222924;22;20016;-91
2022/07/29 05:01:33;;;;;;;0.10;0.10;;;;;;;;;;6227509;22;20011;-91
2022/07/29 05:03:59;;;;;;;0.10;0.10;;;;;;;;;;6253714;22;20037;-91
2022/07/29 05:06:25;;;;;;;0.10;0.10;;;;;;;;;;6250709;22;20448;-90
2022/07/29 05:08:51;;;;;;;0.10;0.10;;;;;;;;;;6268814;22;20011;-91
2022/07/29 05:11:17;;;;;;;0.10;0.10;;;;;;;;;;6223285;22;20011;-91
2022/07/29 05:13:43;;;;;;;0.10;0.10;;;;;;;;;;6253321;22;20463;-91
2022/07/29 05:16:09;;;;;;;0.15;0.15;;;;;;;;;;6223314;22;20027;-91
2022/07/29 05:18:35;;;;;;;0.10;0.10;;;;;;;;;;6227366;22;20015;-92
2022/07/29 05:21:01;;;;;;;0.10;0.10;;;;;;;;;;6245453;22;20379;-90
2022/07/29 05:23:27;;;;;;;0.10;0.10;;;;;;;;;;6251038;22;20015;-92
2022/07/29 05:25:53;;;;;;;0.10;0.10;;;;;;;;;;6223092;22;20352;-91
2022/07/29 05:28:19;;;;;;;0.28;0.20;;;;;;;;;;6223985;22;20016;-92
2022/07/29 05:30:45;;;;;;;0.10;0.10;;;;;;;;;;6241836;22;20018;-91
2022/07/29 05:33:11;;;;;;;0.20;0.20;;;;;;;;;;6222688;22;20096;-91
2022/07/29 05:35:37;;;;;;;0.20;0.20;;;;;;;;;;6227728;22;20011;-89
2022/07/29 05:38:03;;;;;;;0.10;0.10;;;;;;;;;;6253114;22;20007;-91
2022/07/29 05:40:30;;;;;;;0.10;0.10;;;;;;;;;;6225795;22;20015;-90
2022/07/29 05:42:56;;;;;;;0.10;0.10;;;;;;;;;;6269421;22;20011;-90
2022/07/29 05:45:23;;;;;;;0.10;0.10;;;;;;;;;;6224118;22;20011;-91
2022/07/29 05:47:49;;;;;;;0.10;0.10;;;;;;;;;;6279085;22;20019;-91
2022/07/29 05:50:15;;;;;;;0.22;0.22;;;;;;;;;;6253750;22;20094;-91
2022/07/29 05:52:41;;;;;;;0.10;0.10;;;;;;;;;;6279256;22;20201;-92
2022/07/29 05:55:07;;;;;;;0.10;0.10;;;;;;;;;;6247271;22;20007;-90
2022/07/29 05:57:33;;;;;;;0.10;0.10;;;;;;;;;;6227345;22;20047;-90
2022/07/29 05:59:59;;;;;;;0.10;0.10;;;;;;;;;;6278974;22;20034;-89
2022/07/29 06:02:25;;;;;;;0.10;0.10;;;;;;;;;;6253159;22;20015;-90
2022/07/29 06:04:51;;;;;;;0.10;0.10;;;;;;;;;;6269291;22;20091;-90
2022/07/29 06:07:17;;;;;;;0.10;0.10;;;;;;;;;;6249001;22;20239;-90
2022/07/29 06:09:43;;;;;;;0.10;0.10;;;;;;;;;;6253776;22;20022;-90
2022/07/29 06:12:09;;;;;;;0.10;0.10;;;;;;;;;;6222597;22;20016;-90
2022/07/29 06:14:35;;;;;;;0.10;0.10;;;;;;;;;;6222135;22;20106;-91
2022/07/29 06:17:01;;;;;;;0.10;0.10;;;;;;;;;;6215150;22;20460;-92
2022/07/29 06:19:27;;;;;;;0.10;0.10;;;;;;;;;;6222904;22;20011;-92
2022/07/29 06:21:53;;;;;;;0.10;0.10;;;;;;;;;;6246455;22;20016;-91
2022/07/29 06:24:19;;;;;;;0.10;0.10;;;;;;;;;;6249821;22;20018;-91
2022/07/29 06:26:45;;;;;;;0.10;0.10;;;;;;;;;;6243537;22;20018;-91
2022/07/29 06:29:11;;;;;;;0.10;0.10;;;;;;;;;;6224762;22;20012;-92
2022/07/29 06:31:39;;;;;;;0.10;0.10;;;;;;;;;;6230683;22;20007;-91
2022/07/29 06:34:05;;;;;;;0.20;0.20;;;;;;;;;;6255042;22;20008;-91
2022/07/29 06:36:31;;;;;;;0.10;0.10;;;;;;;;;;6225204;22;20020;-92
2022/07/29 06:38:57;;;;;;;0.20;0.20;;;;;;;;;;6271048;22;20019;-92
2022/07/29 06:41:23;;;;;;;0.10;0.10;;;;;;;;;;6225888;22;20016;-91
2022/07/29 06:43:51;;;;;;;0.10;0.10;;;;;;;;;;6254672;22;20054;-91
2022/07/29 06:46:19;;;;;;;0.10;0.10;;;;;;;;;;6223512;22;20503;-91
2022/07/29 06:48:47;;;;;;;0.10;0.10;;;;;;;;;;6243656;22;20053;-91
2022/07/29 06:51:13;;;;;;;0.20;0.20;;;;;;;;;;6224631;22;20008;-92
2022/07/29 06:53:39;;;;;;;0.10;0.10;;;;;;;;;;6225205;22;20429;-92
2022/07/29 06:56:08;;;;;;;0.10;0.10;;;;;;;;;;6249504;22;20023;-92
2022/07/29 06:58:34;;;;;;;0.10;0.10;;;;;;;;;;6227569;22;20012;-89
2022/07/29 07:01:04;;;;;;;0.10;0.10;;;;;;;;;;6246645;22;20042;-89
2022/07/29 07:03:30;;;;;;;0.10;0.10;;;;;;;;;;6227605;22;20016;-89
2022/07/29 07:05:56;;;;;;;0.10;0.10;;;;;;;;;;6254562;22;20068;-89
2022/07/29 07:08:23;;;;;;;0.20;0.20;;;;;;;;;;6224998;22;20468;-90
2022/07/29 07:10:49;;;;;;;0.10;0.10;;;;;;;;;;6244113;22;20012;-90
2022/07/29 07:13:16;;;;;;;0.10;0.10;;;;;;;;;;6249409;22;20011;-89
2022/07/29 07:15:42;;;;;;;0.10;0.10;;;;;;;;;;6280025;22;20069;-91
2022/07/29 07:18:08;;;;;;;0.10;0.10;;;;;;;;;;6254669;22;20011;-90
2022/07/29 07:20:35;;;;;;;0.10;0.10;;;;;;;;;;6253951;22;20061;-93
2022/07/29 07:23:01;;;;;;;0.10;0.10;;;;;;;;;;6247118;22;20007;-89
2022/07/29 07:25:27;;;;;;;0.10;0.10;;;;;;;;;;6251938;22;20443;-91
2022/07/29 07:27:53;;;;;;;0.10;0.10;;;;;;;;;;6254764;22;20094;-90
2022/07/29 07:30:19;;;;;;;0.10;0.10;;;;;;;;;;6224346;22;20088;-90
2022/07/29 07:32:45;;;;;;;0.10;0.10;;;;;;;;;;6244039;22;20436;-90
2022/07/29 07:35:11;;;;;;;0.10;0.10;;;;;;;;;;6225254;22;20019;-90
2022/07/29 07:37:37;;;;;;;0.10;0.10;;;;;;;;;;6229037;22;20022;-90
2022/07/29 07:40:03;;;;;;;0.10;0.10;;;;;;;;;;6254695;22;20086;-92
2022/07/29 07:42:29;;;;;;;0.10;0.10;;;;;;;;;;6225813;22;20453;-90
2022/07/29 07:44:55;;;;;;;0.10;0.10;;;;;;;;;;6245993;22;20011;-90
2022/07/29 07:47:23;;;;;;;0.10;0.10;;;;;;;;;;6225248;22;20015;-91
2022/07/29 07:49:49;;;;;;;0.10;0.10;;;;;;;;;;6280115;22;20007;-91
2022/07/29 07:52:19;;;;;;;0.10;0.10;;;;;;;;;;6254567;22;20018;-92
2022/07/29 07:54:45;;;;;;;0.10;0.10;;;;;;;;;;6243414;22;20044;-91
2022/07/29 07:57:11;;;;;;;0.10;0.10;;;;;;;;;;6224648;22;20015;-92
2022/07/29 07:59:37;;;;;;;0.10;0.10;;;;;;;;;;6228514;22;20022;-91
2022/07/29 08:02:03;;;;;;;0.10;0.10;;;;;;;;;;6254240;22;20046;-92
2022/07/29 08:04:29;;;;;;;0.10;0.10;;;;;;;;;;6226402;22;20020;-92
2022/07/29 08:06:56;;;;;;;0.10;0.10;;;;;;;;;;6245780;22;20021;-92
2022/07/29 08:09:22;;;;;;;0.10;0.10;;;;;;;;;;6225263;22;20421;-90
2022/07/29 08:11:49;;;;;;;0.10;0.10;;;;;;;;;;6253592;22;20007;-88
2022/07/29 08:14:15;;;;;;;0.10;0.10;;;;;;;;;;6248668;22;20018;-91
2022/07/29 08:16:42;;;;;;;0.10;0.10;;;;;;;;;;6241952;22;20383;-93
2022/07/29 08:19:08;;;;;;;0.10;0.10;;;;;;;;;;6223987;22;20328;-92
2022/07/29 08:21:34;;;;;;;0.10;0.10;;;;;;;;;;6228356;22;20016;-92
2022/07/29 08:26:47;;;;;;;0.17;0.17;;;;;;;;;;6250703;22;20023;-95
2022/07/29 08:29:13;;;;;;;0.10;0.10;;;;;;;;;;6198317;22;20014;-93
2022/07/29 08:31:40;;;;;;;0.10;0.10;;;;;;;;;;6249391;22;20340;-93
2022/07/29 08:34:06;;;;;;;0.10;0.10;;;;;;;;;;6224290;22;20042;-93
2022/07/29 08:36:32;;;;;;;0.10;0.10;;;;;;;;;;6226903;22;20016;-93
2022/07/29 08:38:58;;;;;;;0.10;0.10;;;;;;;;;;6245049;22;20011;-94
2022/07/29 08:41:26;;;;;;;0.10;0.10;;;;;;;;;;6225221;22;20020;-93
2022/07/29 08:43:53;;;;;;;0.20;0.20;;;;;;;;;;6244069;22;20463;-93
2022/07/29 08:46:19;;;;;;;0.10;0.10;;;;;;;;;;6249888;22;20012;-92
2022/07/29 08:48:45;;;;;;;0.10;0.10;;;;;;;;;;6280018;22;20018;-91
2022/07/29 08:51:15;;;;;;;0.10;0.10;;;;;;;;;;6253536;22;20011;-92
2022/07/29 08:53:42;;;;;;;0.10;0.10;;;;;;;;;;6223629;22;20008;-93
2022/07/29 08:56:08;;;;;;;0.10;0.10;;;;;;;;;;6222376;22;20091;-89
2022/07/29 08:58:34;;;;;;;0.10;0.10;;;;;;;;;;6221997;22;20019;-88
2022/07/29 09:01:00;;;;;;;0.10;0.10;;;;;;;;;;6239665;22;20015;-88
2022/07/29 09:03:31;;;;;;;0.10;0.10;;;;;;;;;;6225380;22;20015;-88
2022/07/29 09:05:57;;;;;;;0.10;0.10;;;;;;;;;;6272938;22;20019;-89
2022/07/29 09:08:23;;;;;;;0.10;0.10;;;;;;;;;;6279658;22;20336;-89
2022/07/29 09:10:50;;;;;;;0.10;0.10;;;;;;;;;;6268449;22;20054;-89
2022/07/29 09:13:16;;;;;;;0.10;0.10;;;;;;;;;;6223422;22;20082;-89
2022/07/29 09:15:42;;;;;;;0.10;0.10;;;;;;;;;;6248540;22;20008;-89
2022/07/29 09:18:08;;;;;;;0.10;0.10;;;;;;;;;;6247947;22;20022;-89
2022/07/29 09:23:19;;;;;;;0.10;0.10;;;;;;;;;;6279505;22;20090;-88
2022/07/29 09:25:47;;;;;;;0.10;0.10;;;;;;;;;;6241832;22;20054;-88
2022/07/29 09:28:14;;;;;;;0.17;0.17;;;;;;;;;;6278825;22;20385;-90
2022/07/29 09:30:56;;;;;;;0.10;0.10;;;;;;;;;;6278724;22;20022;-89
2022/07/29 09:33:23;;;;;;;0.10;0.10;;;;;;;;;;6275281;22;20011;-92
2022/07/29 09:36:04;;;;;;;0.10;0.10;;;;;;;;;;6243352;22;20013;-91
2022/07/29 09:38:30;;;;;;;0.10;0.10;;;;;;;;;;6226712;22;20057;-93
2022/07/29 09:40:57;;;;;;;0.10;0.10;;;;;;;;;;6245014;22;20253;-91
2022/07/29 09:43:23;;;;;;;0.10;0.10;;;;;;;;;;6224900;22;20014;-91
2022/07/29 09:45:49;;;;;;;0.10;0.10;;;;;;;;;;6253219;22;20344;-92
2022/07/29 09:48:17;;;;;;;0.10;0.10;;;;;;;;;;6223597;22;20007;-92
2022/07/29 09:50:43;;;;;;;0.10;0.10;;;;;;;;;;6242448;22;20011;-92
2022/07/29 09:53:09;;;;;;;0.10;0.10;;;;;;;;;;6223419;22;20061;-92
2022/07/29 09:55:49;;;;;;;0.10;0.10;;;;;;;;;;6252576;22;20023;-93
2022/07/29 09:58:16;;;;;;;0.10;0.10;;;;;;;;;;6254246;22;20007;-93
2022/07/29 10:00:42;;;;;;;0.10;0.10;;;;;;;;;;6243568;22;20093;-89
2022/07/29 10:03:08;;;;;;;0.10;0.10;;;;;;;;;;6250035;22;20043;-87
2022/07/29 10:05:34;;;;;;;0.10;0.10;;;;;;;;;;6229716;22;20061;-92
2022/07/29 10:08:01;;;;;;;0.10;0.10;;;;;;;;;;6259389;22;20411;-91
2022/07/29 10:10:31;;;;;;;0.10;0.10;;;;;;;;;;6252713;22;20034;-91
2022/07/29 10:13:01;;;;;;;0.10;0.10;;;;;;;;;;6246857;22;20061;-94
2022/07/29 10:15:28;;;;;;;0.10;0.10;;;;;;;;;;6227583;22;20012;-90
2022/07/29 10:17:54;;;;;;;0.10;0.10;;;;;;;;;;6255082;22;20011;-92
2022/07/29 10:20:21;;;;;;;0.10;0.10;;;;;;;;;;6251029;22;20376;-89
2022/07/29 10:22:47;;;;;;;0.10;0.10;;;;;;;;;;6269222;22;20007;-88
2022/07/29 10:25:13;;;;;;;0.10;0.10;;;;;;;;;;6227597;22;20018;-90
2022/07/29 10:27:39;;;;;;;0.10;0.10;;;;;;;;;;6226123;22;20023;-87
2022/07/29 10:30:05;;;;;;;0.10;0.10;;;;;;;;;;6249810;22;20003;-87
2022/07/29 10:32:31;;;;;;;0.10;0.10;;;;;;;;;;6227654;22;20008;-88
2022/07/29 10:35:09;;;;;;;0.10;0.10;;;;;;;;;;6280526;22;20393;-87
2022/07/29 10:37:38;;;;;;;0.10;0.10;;;;;;;;;;6280109;22;20019;-88
2022/07/29 10:43:17;;;;;;;0.10;0.10;;;;;;;;;;6279737;22;20023;-88
2022/07/29 10:45:43;;;;;;;0.10;0.10;;;;;;;;;;6254314;22;20015;-87
2022/07/29 10:48:09;;;;;;;0.10;0.10;;;;;;;;;;6224022;22;20468;-87
2022/07/29 10:50:55;;;;;;;0.10;0.10;;;;;;;;;;6253526;22;20038;-88
2022/07/29 10:53:24;;;;;;;0.10;0.10;;;;;;;;;;6255630;22;20011;-88
2022/07/29 10:55:51;;;;;;;0.20;0.20;;;;;;;;;;6269844;22;20444;-87
2022/07/29 10:58:18;;;;;;;0.10;0.10;;;;;;;;;;6248918;22;20372;-87
2022/07/29 11:00:45;;;;;;;0.10;0.10;;;;;;;;;;6268574;22;20011;-87
2022/07/29 11:03:31;;;;;;;0.10;0.10;;;;;;;;;;6249542;22;20499;-87
2022/07/29 11:05:57;;;;;;;0.10;0.10;;;;;;;;;;6252995;22;20100;-88
2022/07/29 11:08:23;;;;;;;0.10;0.10;;;;;;;;;;6225730;22;20413;-87
2022/07/29 11:10:53;;;;;;;0.10;0.10;;;;;;;;;;6243723;22;20011;-87
2022/07/29 11:13:50;;;;;;;0.10;0.10;;;;;;;;;;6250493;22;20476;-88
2022/07/29 11:16:16;;;;;;;0.20;0.20;;;;;;;;;;6252650;22;20012;-87
2022/07/29 11:19:01;;;;;;;0.10;0.10;;;;;;;;;;6254132;22;20034;-87
2022/07/29 11:21:36;;;;;;;0.10;0.10;;;;;;;;;;6277395;22;20093;-87
2022/07/29 11:24:15;;;;;;;0.10;0.10;;;;;;;;;;6272051;22;20090;-87
2022/07/29 11:26:41;;;;;;;0.10;0.10;;;;;;;;;;6249185;22;20016;-88
2022/07/29 11:29:14;;;;;;;0.10;0.10;;;;;;;;;;6249574;22;20015;-87
2022/07/29 11:31:42;;;;;;;0.10;0.10;;;;;;;;;;6229066;22;20471;-88
2022/07/29 11:34:22;;;;;;;0.10;0.10;;;;;;;;;;6274795;22;20343;-87
2022/07/29 11:37:12;;;;;;;0.10;0.10;;;;;;;;;;6249142;22;20384;-87
2022/07/29 11:39:39;;;;;;;0.10;0.10;;;;;;;;;;6278922;22;20015;-88
2022/07/29 11:42:20;;;;;;;0.10;0.10;;;;;;;;;;6272344;22;20279;-88
2022/07/29 11:45:02;;;;;;;0.10;0.10;;;;;;;;;;6249392;22;20038;-87
2022/07/29 11:47:28;;;;;;;0.10;0.10;;;;;;;;;;6279655;22;20056;-87
2022/07/29 11:49:56;;;;;;;0.10;0.10;;;;;;;;;;6279343;22;20004;-87
2022/07/29 11:52:22;;;;;;;0.10;0.10;;;;;;;;;;6279543;22;20523;-87
2022/07/29 11:54:48;;;;;;;0.10;0.10;;;;;;;;;;6279758;22;20039;-87
2022/07/29 11:57:18;;;;;;;0.10;0.10;;;;;;;;;;6279161;22;20034;-88
2022/07/29 11:59:44;;;;;;;0.20;0.20;;;;;;;;;;6279519;22;20090;-87
2022/07/29 12:02:10;;;;;;;0.10;0.10;;;;;;;;;;6279511;22;20042;-87
2022/07/29 12:04:49;;;;;;;0.10;0.10;;;;;;;;;;6279034;22;20022;-88
2022/07/29 12:07:15;;;;;;;0.10;0.10;;;;;;;;;;6253684;22;20047;-87
2022/07/29 12:09:48;;;;;;;0.10;0.10;;;;;;;;;;6267189;22;20011;-88
2022/07/29 12:12:14;;;;;;;0.10;0.10;;;;;;;;;;6223404;22;20038;-87
2022/07/29 12:14:45;;;;;;;0.10;0.10;;;;;;;;;;6248658;22;20016;-88
2022/07/29 12:17:14;;;;;;;0.10;0.10;;;;;;;;;;6242693;22;20011;-87
2022/07/29 12:19:43;;;;;;;0.10;0.10;;;;;;;;;;6228738;22;20452;-87
2022/07/29 12:22:09;;;;;;;0.10;0.10;;;;;;;;;;6248304;22;20069;-87
2022/07/29 12:24:44;;;;;;;0.10;0.10;;;;;;;;;;6249222;22;20019;-87
2022/07/29 12:27:10;;;;;;;0.10;0.10;;;;;;;;;;6222281;22;20043;-87
2022/07/29 12:29:36;;;;;;;0.10;0.10;;;;;;;;;;6252960;22;20018;-88
2022/07/29 12:32:03;;;;;;;0.10;0.10;;;;;;;;;;6271486;22;20003;-88
2022/07/29 12:34:29;;;;;;;0.10;0.10;;;;;;;;;;6251228;22;20076;-88
2022/07/29 12:36:55;;;;;;;0.10;0.10;;;;;;;;;;6279214;22;20499;-87
2022/07/29 12:39:21;;;;;;;0.30;0.30;;;;;;;;;;6278936;22;20026;-87
2022/07/29 12:41:47;;;;;;;0.10;0.10;;;;;;;;;;6279087;22;20019;-87
2022/07/29 12:44:13;;;;;;;0.10;0.10;;;;;;;;;;6253765;22;20075;-87
2022/07/29 12:46:39;;;;;;;0.10;0.10;;;;;;;;;;6253490;22;20336;-87
2022/07/29 12:49:05;;;;;;;0.10;0.10;;;;;;;;;;6253248;22;20003;-87
2022/07/29 12:51:38;;;;;;;0.10;0.10;;;;;;;;;;6226611;22;20441;-88
2022/07/29 12:54:10;;;;;;;0.10;0.10;;;;;;;;;;6279238;22;20091;-88
2022/07/29 12:56:36;;;;;;;0.10;0.10;;;;;;;;;;6252782;22;20022;-88
2022/07/29 12:59:14;;;;;;;0.20;0.20;;;;;;;;;;6270886;22;20015;-88
2022/07/29 13:01:41;;;;;;;0.10;0.10;;;;;;;;;;6248225;22;20019;-88
2022/07/29 13:04:06;;;;;;;0.10;0.10;;;;;;;;;;6248386;22;20019;-88
2022/07/29 13:06:37;;;;;;;0.10;0.10;;;;;;;;;;6223055;22;20016;-87
2022/07/29 13:09:10;;;;;;;0.10;0.10;;;;;;;;;;6221636;22;20012;-88
2022/07/29 13:11:38;;;;;;;0.10;0.10;;;;;;;;;;6252427;22;20011;-87
2022/07/29 13:14:04;;;;;;;0.10;0.10;;;;;;;;;;6271314;22;20090;-87
2022/07/29 13:16:30;;;;;;;0.10;0.10;;;;;;;;;;6251162;22;20449;-88
2022/07/29 13:19:06;;;;;;;0.10;0.10;;;;;;;;;;6253397;22;20425;-87
2022/07/29 13:21:32;;;;;;;0.10;0.10;;;;;;;;;;6251698;22;20471;-88
2022/07/29 13:23:57;;;;;;;0.10;0.10;;;;;;;;;;6244552;22;20015;-88
2022/07/29 13:26:23;;;;;;;0.10;0.10;;;;;;;;;;6249873;22;20504;-88
2022/07/29 13:28:49;;;;;;;0.10;0.10;;;;;;;;;;6278565;22;20011;-87
2022/07/29 13:31:15;;;;;;;0.10;0.10;;;;;;;;;;6252959;22;20068;-88
2022/07/29 13:33:41;;;;;;;0.20;0.20;;;;;;;;;;6278668;22;20061;-88
2022/07/29 13:36:07;;;;;;;0.10;0.10;;;;;;;;;;6272016;22;20011;-88
2022/07/29 13:38:33;;;;;;;0.10;0.10;;;;;;;;;;6226705;22;20400;-87
2022/07/29 13:40:59;;;;;;;0.10;0.10;;;;;;;;;;6278158;22;20027;-88
2022/07/29 13:43:25;;;;;;;0.10;0.10;;;;;;;;;;6253035;22;20015;-88
2022/07/29 13:45:51;;;;;;;0.10;0.10;;;;;;;;;;6268453;22;20014;-87
2022/07/29 13:48:17;;;;;;;0.10;0.10;;;;;;;;;;6248485;22;20060;-87
2022/07/29 13:50:43;;;;;;;0.10;0.10;;;;;;;;;;6278398;22;20011;-88
2022/07/29 13:53:09;;;;;;;0.10;0.10;;;;;;;;;;6252644;22;20012;-88
2022/07/29 13:55:36;;;;;;;0.10;0.10;;;;;;;;;;6252393;22;20015;-88
2022/07/29 13:58:02;;;;;;;0.10;0.10;;;;;;;;;;6278466;22;20011;-88
2022/07/29 14:00:28;;;;;;;0.10;0.10;;;;;;;;;;6276718;22;20017;-88
2022/07/29 14:02:54;;;;;;;0.10;0.10;;;;;;;;;;6269192;22;20397;-88
2022/07/29 14:05:20;;;;;;;0.10;0.10;;;;;;;;;;6248824;22;20448;-87
2022/07/29 14:07:46;;;;;;;0.20;0.20;;;;;;;;;;6276810;22;20041;-88
2022/07/29 14:10:12;;;;;;;0.20;0.20;;;;;;;;;;6278517;22;20344;-91
2022/07/29 14:12:38;;;;;;;0.10;0.10;;;;;;;;;;6252985;22;20022;-91
2022/07/29 14:15:04;;;;;;;0.10;0.10;;;;;;;;;;6253012;22;20016;-89
2022/07/29 14:17:30;;;;;;;0.10;0.10;;;;;;;;;;6224578;22;20047;-88
2022/07/29 14:19:56;;;;;;;0.10;0.10;;;;;;;;;;6269363;22;20015;-89
2022/07/29 14:22:22;;;;;;;0.10;0.10;;;;;;;;;;6278167;22;20094;-89
2022/07/29 14:24:48;;;;;;;0.10;0.10;;;;;;;;;;6267733;22;20313;-90
2022/07/29 14:27:14;;;;;;;0.20;0.20;;;;;;;;;;6222653;22;20016;-88
2022/07/29 14:29:40;;;;;;;0.20;0.20;;;;;;;;;;6222590;22;20317;-91
2022/07/29 14:32:06;;;;;;;0.10;0.10;;;;;;;;;;6247572;22;20014;-91
2022/07/29 14:34:33;;;;;;;0.10;0.10;;;;;;;;;;6222543;22;20016;-90
2022/07/29 14:36:59;;;;;;;0.10;0.10;;;;;;;;;;6220867;22;20054;-90
2022/07/29 14:39:25;;;;;;;0.10;0.10;;;;;;;;;;6223637;22;20059;-90
2022/07/29 14:41:51;;;;;;;0.10;0.10;;;;;;;;;;6242734;22;20344;-90
2022/07/29 14:44:18;;;;;;;0.13;0.13;;;;;;;;;;6248136;22;20023;-90
2022/07/29 14:46:44;;;;;;;0.10;0.10;;;;;;;;;;6228684;22;20137;-90
2022/07/29 14:49:10;;;;;;;0.20;0.20;;;;;;;;;;6254261;22;20344;-89
2022/07/29 14:51:36;;;;;;;0.10;0.10;;;;;;;;;;6228352;22;20015;-90
2022/07/29 14:54:02;;;;;;;0.40;0.40;;;;;;;;;;6247200;22;20011;-90
2022/07/29 14:56:29;;;;;;;0.10;0.10;;;;;;;;;;6227008;22;20016;-89